Burton Latimer, United Kingdom
Current Conditions -  °F | °C
As of 11:50 PM on Monday 20 Oct 2014 (Local Time) from EGXT Reporting Station
Broken Clouds Broken Clouds  
Wind Chill: 54°   Ceiling: 19000
Heat Index: 54°   Visibility: 6mi
Dew Point: 50°   Wind: 15mph
Humidity: 88%   Direction: 210°SSW
Pressure: 29.77"   Gusts: NA
Location:  52.36°N, 0.68°W
Report Text: EGXT 202250Z AUTO 21013KT 9999 // BKN190/// 12/10 Q1008
Loading
Personal Weather Stations






























Interactive Weather Map
Tropical Storm Tracking
New forecast layout! Learn more

10-Day Weather Forecast

Advertisements
Track Severe Weather on mobile